createdAt,value
2022-08-08T00:00:56.638Z,21.40
2022-08-08T00:06:10.078Z,21.50
2022-08-08T00:11:46.703Z,21.60
2022-08-08T00:17:22.567Z,21.60
2022-08-08T00:22:31.043Z,21.60
2022-08-08T00:27:37.864Z,21.60
2022-08-08T00:32:57.180Z,21.60
2022-08-08T00:38:16.861Z,21.50
2022-08-08T00:44:00.891Z,21.50
2022-08-08T00:49:33.204Z,21.50
2022-08-08T00:55:07.128Z,21.50
2022-08-08T01:00:13.581Z,21.60
2022-08-08T01:05:59.618Z,21.50
2022-08-08T01:11:31.965Z,21.50
2022-08-08T01:16:59.271Z,21.50
2022-08-08T01:22:23.234Z,21.50
2022-08-08T01:28:03.636Z,21.40
2022-08-08T01:33:42.971Z,21.50
2022-08-08T01:39:24.302Z,21.50
2022-08-08T01:44:54.939Z,21.40
2022-08-08T01:50:38.155Z,21.40
2022-08-08T01:56:31.634Z,21.50
2022-08-08T02:02:00.293Z,21.40
2022-08-08T02:07:41.963Z,21.40
2022-08-08T02:13:05.855Z,21.40
2022-08-08T02:18:30.688Z,21.40
2022-08-08T02:23:42.558Z,21.40
2022-08-08T02:29:21.976Z,21.40
2022-08-08T02:35:10.817Z,21.40
2022-08-08T02:40:45.173Z,21.40
2022-08-08T02:46:12.000Z,21.40
2022-08-08T02:51:46.643Z,21.40
2022-08-08T02:57:44.604Z,21.40
2022-08-08T03:03:45.989Z,21.50
2022-08-08T03:09:05.868Z,21.50
2022-08-08T03:16:01.310Z,21.40
2022-08-08T03:20:05.318Z,21.40
2022-08-08T03:25:18.206Z,21.40
2022-08-08T03:30:25.187Z,21.40
2022-08-08T03:35:30.154Z,21.40
2022-08-08T03:40:37.725Z,21.40
2022-08-08T03:46:05.920Z,21.40
2022-08-08T03:51:07.260Z,21.40
2022-08-08T03:56:10.414Z,21.40
2022-08-08T04:02:31.501Z,21.40
2022-08-08T04:07:01.927Z,21.40
2022-08-08T04:12:11.783Z,21.40
2022-08-08T04:17:46.026Z,21.40
2022-08-08T04:22:46.216Z,21.40
2022-08-08T04:28:02.680Z,21.40
2022-08-08T04:33:17.623Z,21.40
2022-08-08T04:38:21.138Z,21.00
2022-08-08T04:43:31.901Z,20.90
2022-08-08T04:48:51.609Z,21.10
2022-08-08T04:54:38.341Z,21.20
2022-08-08T04:59:18.039Z,21.20
2022-08-08T05:04:27.806Z,21.30
2022-08-08T05:09:32.124Z,21.30
2022-08-08T05:14:39.301Z,21.30
2022-08-08T05:20:09.393Z,21.40
2022-08-08T05:25:11.039Z,21.40
2022-08-08T05:30:13.712Z,21.40
2022-08-08T05:35:23.755Z,21.40
2022-08-08T05:40:30.693Z,21.50
2022-08-08T05:45:41.654Z,21.50
2022-08-08T05:50:46.851Z,21.60
2022-08-08T05:56:09.597Z,21.50
2022-08-08T06:01:57.437Z,21.60
2022-08-08T06:06:56.668Z,21.60
2022-08-08T06:12:05.306Z,21.60
2022-08-08T06:17:11.148Z,21.70
2022-08-08T06:22:33.182Z,21.70
2022-08-08T06:28:00.741Z,21.70
2022-08-08T06:33:10.711Z,21.80
2022-08-08T06:38:19.928Z,21.80
2022-08-08T06:43:34.621Z,21.80
2022-08-08T06:48:42.455Z,21.90
2022-08-08T06:53:51.266Z,22.00
2022-08-08T06:59:12.173Z,22.10
2022-08-08T07:04:41.629Z,22.20
2022-08-08T07:10:08.327Z,22.20
2022-08-08T07:15:32.581Z,22.30
2022-08-08T07:20:50.570Z,22.20
2022-08-08T07:26:02.665Z,22.30
2022-08-08T07:31:06.624Z,22.20
2022-08-08T07:36:15.103Z,22.40
2022-08-08T07:41:24.726Z,22.50
2022-08-08T07:46:31.175Z,22.60
2022-08-08T07:51:53.413Z,22.60
2022-08-08T07:57:25.673Z,22.70
2022-08-08T08:02:41.851Z,22.70
2022-08-08T08:07:54.793Z,22.80
2022-08-08T08:13:25.111Z,22.70
2022-08-08T08:18:56.698Z,22.80
2022-08-08T08:24:03.446Z,22.90
2022-08-08T08:29:08.295Z,23.00
2022-08-08T08:34:19.195Z,23.10
2022-08-08T08:39:39.113Z,23.10
2022-08-08T08:44:49.758Z,23.40
2022-08-08T08:49:56.223Z,23.80
2022-08-08T08:55:00.575Z,24.20
2022-08-08T09:00:14.765Z,24.20
2022-08-08T09:05:49.041Z,24.40
2022-08-08T09:10:48.075Z,24.40
2022-08-08T09:15:52.313Z,24.30
2022-08-08T09:21:58.548Z,24.50
2022-08-08T09:26:51.466Z,24.40
2022-08-08T09:32:03.637Z,24.40
2022-08-08T09:37:58.164Z,24.10
2022-08-08T09:42:51.682Z,24.00
2022-08-08T09:48:10.097Z,24.00
2022-08-08T09:53:31.987Z,23.90
2022-08-08T09:58:53.803Z,23.80
2022-08-08T10:04:02.151Z,23.60
2022-08-08T10:09:08.621Z,23.60
2022-08-08T10:14:34.789Z,23.60
2022-08-08T10:19:46.293Z,23.60
2022-08-08T10:25:04.511Z,23.80
2022-08-08T10:30:07.897Z,23.80
2022-08-08T10:36:09.490Z,24.00
2022-08-08T10:40:50.451Z,23.90
2022-08-08T10:45:56.109Z,23.80
2022-08-08T10:51:12.409Z,23.90
2022-08-08T10:56:27.641Z,23.80
2022-08-08T11:01:37.752Z,23.90
2022-08-08T11:06:42.057Z,23.90
2022-08-08T11:12:06.159Z,24.00
2022-08-08T11:17:58.909Z,23.90
2022-08-08T11:22:42.179Z,23.90
2022-08-08T11:27:47.973Z,24.00
2022-08-08T11:32:55.489Z,24.20
2022-08-08T11:38:36.330Z,24.20
2022-08-08T11:43:23.735Z,24.40
2022-08-08T11:48:27.868Z,24.40
2022-08-08T11:53:30.863Z,24.30
2022-08-08T11:58:45.792Z,24.40
2022-08-08T12:03:59.450Z,24.70
2022-08-08T12:09:09.515Z,24.50
2022-08-08T12:14:24.163Z,24.40
2022-08-08T12:19:51.143Z,24.30
2022-08-08T12:24:56.594Z,24.40
2022-08-08T12:30:02.029Z,24.60
2022-08-08T12:35:17.696Z,24.40
2022-08-08T12:40:22.193Z,24.60
2022-08-08T12:45:59.556Z,24.50
2022-08-08T12:50:59.650Z,24.40
2022-08-08T12:56:19.449Z,24.80
2022-08-08T13:01:38.269Z,24.90
2022-08-08T13:06:51.780Z,25.50
2022-08-08T13:12:24.594Z,25.20
2022-08-08T13:18:09.991Z,25.40
2022-08-08T13:22:46.767Z,24.80
2022-08-08T13:27:54.595Z,24.80
2022-08-08T13:33:01.371Z,25.00
2022-08-08T13:38:08.158Z,25.00
2022-08-08T13:43:16.454Z,25.00
2022-08-08T13:48:25.393Z,24.90
2022-08-08T13:53:31.480Z,24.80
2022-08-08T13:58:37.084Z,25.00
2022-08-08T14:03:55.092Z,25.00
2022-08-08T14:08:58.828Z,25.10
2022-08-08T14:14:03.931Z,25.00
2022-08-08T14:19:10.588Z,25.00
2022-08-08T14:24:15.997Z,25.20
2022-08-08T14:29:27.950Z,25.30
2022-08-08T14:34:32.959Z,25.20
2022-08-08T14:39:53.953Z,25.20
2022-08-08T14:45:10.000Z,25.30
2022-08-08T14:50:37.629Z,25.30
2022-08-08T14:55:41.865Z,25.30
2022-08-08T15:00:49.837Z,25.40
2022-08-08T15:05:57.842Z,25.40
2022-08-08T15:11:01.609Z,25.40
2022-08-08T15:16:12.185Z,25.50
2022-08-08T15:21:17.182Z,25.50
2022-08-08T15:26:20.545Z,25.50
2022-08-08T15:31:56.167Z,25.40
2022-08-08T15:36:47.521Z,25.30
2022-08-08T15:41:51.236Z,25.30
2022-08-08T15:46:53.861Z,25.10
2022-08-08T15:51:56.768Z,25.10
2022-08-08T15:56:59.240Z,25.00
2022-08-08T16:02:03.119Z,25.00
2022-08-08T16:07:06.640Z,25.00
2022-08-08T16:13:21.036Z,25.00
2022-08-08T16:17:57.542Z,25.00
2022-08-08T16:22:54.412Z,24.90
2022-08-08T16:27:58.302Z,24.80
2022-08-08T16:33:01.583Z,24.80
2022-08-08T16:38:04.170Z,24.70
2022-08-08T16:43:06.756Z,24.10
2022-08-08T16:48:13.425Z,23.60
2022-08-08T16:55:02.073Z,23.50
2022-08-08T16:58:38.530Z,23.40
2022-08-08T17:04:00.242Z,23.40
2022-08-08T17:09:06.146Z,23.30
2022-08-08T17:14:17.811Z,23.20
2022-08-08T17:19:21.716Z,23.30
2022-08-08T17:24:28.091Z,23.00
2022-08-08T17:29:36.414Z,23.00
2022-08-08T17:35:00.112Z,23.00
2022-08-08T17:40:10.742Z,23.00
2022-08-08T17:45:23.647Z,23.10
2022-08-08T17:50:27.040Z,23.10
2022-08-08T17:56:06.888Z,23.10
2022-08-08T18:00:56.466Z,23.00
2022-08-08T18:06:00.067Z,23.30
2022-08-08T18:11:07.919Z,23.30
2022-08-08T18:16:11.424Z,23.40
2022-08-08T18:21:34.942Z,23.50
2022-08-08T18:26:36.832Z,23.50
2022-08-08T18:31:39.987Z,23.50
2022-08-08T18:36:44.605Z,23.50
2022-08-08T18:41:57.307Z,23.50
2022-08-08T18:47:05.385Z,23.50
2022-08-08T18:52:18.548Z,23.50
2022-08-08T18:57:25.101Z,23.50
2022-08-08T19:02:29.871Z,23.50
2022-08-08T19:07:33.562Z,23.50
2022-08-08T19:12:44.612Z,23.50
2022-08-08T19:18:33.554Z,23.50
2022-08-08T19:23:14.851Z,23.50
2022-08-08T19:28:20.118Z,23.50
2022-08-08T19:33:24.527Z,23.40
2022-08-08T19:38:27.128Z,23.40
2022-08-08T19:43:30.558Z,23.40
2022-08-08T19:48:33.605Z,23.40
2022-08-08T19:53:51.804Z,23.40
2022-08-08T19:58:56.157Z,23.40
2022-08-08T20:04:01.566Z,23.40
2022-08-08T20:09:09.134Z,23.40
2022-08-08T20:14:33.751Z,23.40
2022-08-08T20:19:42.410Z,23.30
2022-08-08T20:24:46.235Z,23.30
2022-08-08T20:29:55.716Z,23.30
2022-08-08T20:35:03.884Z,23.30
2022-08-08T20:40:08.196Z,23.20
2022-08-08T20:45:10.878Z,23.20
2022-08-08T20:50:14.916Z,23.20
2022-08-08T20:55:25.669Z,23.30
2022-08-08T21:00:28.524Z,23.30
2022-08-08T21:05:33.057Z,23.20
2022-08-08T21:10:52.319Z,23.20
2022-08-08T21:16:06.290Z,21.50
2022-08-08T21:21:39.768Z,21.80
2022-08-08T21:26:42.104Z,22.50
2022-08-08T21:31:53.436Z,22.70
2022-08-08T21:37:06.772Z,22.80
2022-08-08T21:42:18.847Z,22.90
2022-08-08T21:48:07.951Z,22.90
2022-08-08T21:54:31.088Z,23.00
2022-08-08T21:58:14.159Z,22.90
2022-08-08T22:03:17.803Z,23.00
2022-08-08T22:08:24.072Z,23.00
2022-08-08T22:13:26.871Z,22.90
2022-08-08T22:18:49.645Z,23.00
2022-08-08T22:23:55.794Z,22.90
2022-08-08T22:29:13.059Z,22.90
2022-08-08T22:34:23.527Z,22.90
2022-08-08T22:39:39.329Z,22.90
2022-08-08T22:44:48.464Z,22.90
2022-08-08T22:49:53.951Z,22.90
2022-08-08T22:55:04.951Z,22.90
2022-08-08T23:00:11.654Z,22.80
2022-08-08T23:05:15.921Z,22.80
2022-08-08T23:10:19.721Z,22.80
2022-08-08T23:16:41.266Z,22.80
2022-08-08T23:20:54.483Z,22.70
2022-08-08T23:25:57.777Z,22.70
2022-08-08T23:31:00.150Z,22.70
2022-08-08T23:36:07.991Z,22.70
2022-08-08T23:41:17.313Z,22.70
2022-08-08T23:49:02.737Z,22.70
2022-08-08T23:52:07.254Z,22.70
2022-08-08T23:57:25.318Z,22.60
